Current | Forecast
Updated: 12:00 PM JST on September 20, 2017
Observed at Miyazaki Airport, Japan
Temperature 81°F
Humidity 65%
Dew Point 68°F
Wind West at 14 mph
Pressure 29.89 in (Steady)
Conditions Light Rain
Visibility 6.2 miles
UV 9 out of 16
Clouds (FEW) : 3000 ft
Scattered Clouds (SCT) : 14000 ft
Yesterday's Maximum 84°F
Yesterday's Minimum 68°F approx.
Yesterday's Cooling Degree Days 11 approx.
Sunrise6:01 AM JST
Sunset6:13 PM JST
Moon Rise5:41 AM JST
Moon Set6:26 PM JST
Moon PhaseMoon Phase
Waning Crescent
Raw METARMETAR RJFM 200300Z 28012KT 9999 -RA FEW030 SCT140 BKN/// 27/20 Q1012


Monday
. High: 70° F.
Tuesday
. High: 80° F.
Wednesday
. High: 71° F.
Thursday
. High: 71° F.
Friday
. High: 67° F.
Saturday
. High: 75° F.
Sunday
. High: 75° F.
Monday
. High: 75° F.

Units: English | Metric

Find the Weather for any City, State or Zipcode, or Country:

U.S. State List | Severe Weather | Tropical Storms | Ski Conditions
United States | Canada | Central America | South America | Asia | Europe | Australia | Africa | Islands

Weather Underground

© Copyright 2017
The Weather Company, LLC